Atoka, Tennessee
Current Conditions -  °F | °C
As of 3:50 PM on Saturday 25 Oct 2014 (Local Time) from KNQA Reporting Station
Scattered Clouds Scattered Clouds  
Wind Chill: 84°   Ceiling: Unl
Heat Index: 86°   Visibility: 10mi
Dew Point: 66°   Wind: 7mph
Humidity: 55%   Direction: 240°WSW
Pressure: 30.01"   Gusts: NA
Location:  35.44°N, 89.78°W
Report Text: KNQA 252050Z 24006KT 10SM SCT050 29/19 A3001
Loading
Personal Weather Stations






























Interactive Weather Map
Tropical Storm Tracking
New forecast layout! Learn more

10-Day Weather Forecast

Advertisements
Track Severe Weather on mobile